Fushun, China
Current Conditions -  °F | °C
As of 1:00 PM on Saturday 29 Nov 2014 (Local Time) from ZYTX Reporting Station
Clear Clear  
Wind Chill: 45°   Ceiling: Unl
Heat Index: 48°   Visibility: 6mi
Dew Point: 10°   Wind: 7mph
Humidity: 22%   Direction: 190°S
Pressure: 30.09"   Gusts: NA
Location:  41.87°N, 123.88°E
Report Text: ZYTX 290500Z 19003MPS 160V230 CAVOK 09/M12 Q1019 NOSIG
Loading
Personal Weather Stations






























Interactive Weather Map New forecast layout! Learn more

10-Day Weather Forecast

Advertisements
Track Severe Weather on mobile